Time;durP1;ratioP1;P1;durP2;ratioP2;P2;SDS_P1;SDS_P2;PMS_P1;PMS_P2;Temp;Humidity;BMP_temperature;BMP_pressure;BME280_temperature;BME280_humidity;BME280_pressure;Samples;Min_cycle;Max_cycle;Signal;HPM_P1;HPM_P2
2022/02/19 00:01:34;;;;;;;4.67;2.40;;;7.90;54.90;;;7.86;48.11;97050.38;6236454;23;20005;-40
2022/02/19 00:04:04;;;;;;;5.07;2.07;;;8.00;54.50;;;7.78;47.43;97071.53;6234360;23;20016;-40
2022/02/19 00:06:34;;;;;;;8.43;2.87;;;7.90;53.50;;;7.76;46.97;97047.03;6235099;23;20205;-44
2022/02/19 00:09:02;;;;;;;5.83;2.90;;;7.80;53.10;;;7.72;47.72;97057.09;6232887;23;20023;-43
2022/02/19 00:11:30;;;;;;;8.53;1.77;;;7.80;53.50;;;7.71;47.14;97054.59;6236149;23;20031;-43
2022/02/19 00:13:58;;;;;;;9.33;3.10;;;7.90;53.00;;;7.73;47.09;97057.94;6234791;23;20024;-43
2022/02/19 00:16:26;;;;;;;6.23;1.63;;;7.80;53.40;;;7.67;47.30;97075.28;6234824;23;20020;-42
2022/02/19 00:18:54;;;;;;;8.33;1.43;;;7.80;53.80;;;7.78;47.58;97056.47;6235067;23;20340;-43
2022/02/19 00:21:22;;;;;;;10.20;1.93;;;7.80;54.30;;;7.71;47.29;97058.06;6244830;23;20012;-43
2022/02/19 00:23:49;;;;;;;7.90;1.60;;;7.80;53.30;;;7.78;48.07;97067.06;6235358;23;20328;-44
2022/02/19 00:26:23;;;;;;;8.38;1.92;;;7.80;54.50;;;7.68;47.58;97063.72;6246564;23;20020;-41
2022/02/19 00:28:51;;;;;;;4.83;1.77;;;7.80;54.00;;;7.67;47.56;97054.09;6234626;23;20042;-42
2022/02/19 00:31:20;;;;;;;9.33;2.23;;;7.80;54.10;;;7.61;47.55;97073.25;6209146;23;20356;-42
2022/02/19 00:33:48;;;;;;;7.93;2.03;;;7.70;53.80;;;7.62;47.64;97067.00;6235055;23;20020;-43
2022/02/19 00:36:16;;;;;;;4.23;1.80;;;7.70;54.40;;;7.70;47.71;97088.22;6208534;23;20020;-44
2022/02/19 00:38:47;;;;;;;12.67;2.57;;;7.80;54.00;;;7.67;47.91;97077.94;6208119;23;20026;-42
2022/02/19 00:41:15;;;;;;;6.23;1.77;;;7.80;53.70;;;7.58;46.79;97089.44;6236896;23;20019;-42
2022/02/19 00:43:43;;;;;;;5.50;1.63;;;7.70;53.00;;;7.46;47.11;97089.75;6235024;23;20024;-42
2022/02/19 00:46:11;;;;;;;7.90;1.97;;;7.60;53.30;;;7.51;47.53;97099.03;6208729;23;20344;-42
2022/02/19 00:48:39;;;;;;;9.03;2.67;;;7.60;53.10;;;7.51;46.07;97120.22;6235134;23;20024;-41
2022/02/19 00:51:18;;;;;;;6.00;1.30;;;7.60;51.80;;;7.36;45.79;97110.16;6209506;23;20028;-43
2022/02/19 00:53:47;;;;;;;3.90;1.70;;;7.60;50.90;;;7.45;45.88;97114.53;6208447;23;20028;-45
2022/02/19 00:56:15;;;;;;;8.47;1.70;;;7.70;51.20;;;7.42;46.33;97121.97;6235375;23;20026;-41
2022/02/19 00:58:43;;;;;;;8.73;1.80;;;7.60;51.70;;;7.48;46.72;97114.25;6208457;23;20028;-41
2022/02/19 01:01:11;;;;;;;5.63;2.37;;;7.60;52.70;;;7.54;46.72;97111.94;6209646;23;20019;-41
2022/02/19 01:03:57;;;;;;;4.20;1.70;;;7.70;52.10;;;7.45;45.54;97114.53;6208671;23;20030;-41
2022/02/19 01:06:27;;;;;;;4.90;1.57;;;7.70;50.70;;;7.50;45.77;97119.38;6236348;23;20016;-42
2022/02/19 01:08:55;;;;;;;4.47;1.40;;;7.70;50.90;;;7.50;45.53;97132.63;6235309;23;20020;-42
2022/02/19 01:11:24;;;;;;;6.43;2.30;;;7.70;50.40;;;7.40;44.29;97119.47;6235065;23;20023;-42
2022/02/19 01:13:52;;;;;;;6.10;1.30;;;7.60;49.30;;;7.33;44.98;97129.03;6208557;23;20213;-42
2022/02/19 01:16:20;;;;;;;7.10;1.60;;;7.50;49.40;;;7.46;45.14;97137.41;6235625;23;20020;-42
2022/02/19 01:18:49;;;;;;;7.17;2.63;;;7.60;49.50;;;7.55;44.93;97135.63;6234174;23;20318;-42
2022/02/19 01:21:19;;;;;;;5.20;1.67;;;7.70;49.70;;;7.56;44.33;97145.25;6208784;23;20016;-43
2022/02/19 01:23:47;;;;;;;7.00;2.47;;;7.70;48.80;;;7.54;44.13;97149.03;6234925;23;20027;-41
2022/02/19 01:26:14;;;;;;;7.83;1.57;;;7.70;48.90;;;7.48;43.93;97153.13;6235834;23;20044;-41
2022/02/19 01:28:47;;;;;;;4.53;1.63;;;7.70;48.30;;;7.43;43.83;97166.03;6208819;23;20024;-43
2022/02/19 01:31:18;;;;;;;2.97;0.97;;;7.60;47.50;;;7.41;43.22;97163.50;6208477;23;20028;-42
2022/02/19 01:33:48;;;;;;;4.27;1.70;;;7.60;46.90;;;7.37;42.61;97164.81;6208388;23;20020;-42
2022/02/19 01:36:16;;;;;;;6.60;1.70;;;7.60;46.50;;;7.42;43.52;97167.81;6209026;23;20020;-43
2022/02/19 01:38:43;;;;;;;3.87;1.73;;;7.60;47.70;;;7.47;43.34;97194.69;6206575;23;20034;-42
2022/02/19 01:41:12;;;;;;;3.40;1.67;;;7.60;47.30;;;7.36;42.34;97167.59;6209367;23;20034;-41
2022/02/19 01:43:39;;;;;;;5.70;1.43;;;7.50;46.60;;;7.30;43.02;97184.94;6183395;23;20016;-44
2022/02/19 01:46:08;;;;;;;8.07;2.40;;;7.50;47.10;;;7.28;43.44;97187.72;6208491;23;20016;-41
2022/02/19 01:48:37;;;;;;;3.93;1.50;;;7.50;47.30;;;7.24;43.12;97196.97;6205668;23;20043;-41
2022/02/19 01:51:06;;;;;;;8.00;2.20;;;7.50;46.80;;;7.18;42.52;97191.44;6185035;23;20028;-42
2022/02/19 01:53:35;;;;;;;6.20;2.03;;;7.40;46.70;;;7.09;42.41;97204.59;6207300;23;20028;-42
2022/02/19 01:56:18;;;;;;;5.22;1.65;;;7.30;46.90;;;7.25;43.81;97200.44;6207106;23;20809;-41
2022/02/19 01:59:10;;;;;;;4.30;1.50;;;7.40;48.10;;;7.15;43.65;97212.91;6186462;23;20019;-42
2022/02/19 02:01:56;;;;;;;5.57;1.87;;;7.40;48.00;;;7.19;43.67;97204.53;6244879;23;20030;-42
2022/02/19 02:04:34;;;;;;;7.00;2.07;;;7.40;48.30;;;7.21;44.11;97212.31;6208920;23;20016;-42
2022/02/19 02:07:03;;;;;;;7.17;1.80;;;7.30;48.80;;;7.17;44.08;97219.72;6238053;23;20012;-42
2022/02/19 02:09:35;;;;;;;4.90;1.63;;;7.30;48.50;;;7.11;43.76;97230.91;6209777;23;20054;-41
2022/02/19 02:12:08;;;;;;;6.20;2.40;;;7.30;48.40;;;7.12;43.43;97223.81;6185521;23;20020;-42
2022/02/19 02:14:45;;;;;;;5.50;1.40;;;7.30;48.20;;;7.03;44.28;97230.81;6210362;23;20020;-42
2022/02/19 02:17:19;;;;;;;4.17;1.80;;;7.20;48.90;;;6.82;44.30;97228.44;6210098;23;20035;-44
2022/02/19 02:19:46;;;;;;;8.10;1.47;;;7.00;49.40;;;6.86;44.66;97238.59;6235982;23;20027;-41
2022/02/19 02:22:17;;;;;;;8.60;2.33;;;7.00;49.60;;;6.88;44.60;97234.00;6185703;23;20024;-41
2022/02/19 02:24:47;;;;;;;3.97;1.57;;;7.00;50.00;;;6.88;44.91;97230.50;6209603;23;20016;-43
2022/02/19 02:27:39;;;;;;;4.10;1.83;;;7.00;50.30;;;6.99;44.90;97242.69;6214453;23;20032;-41
2022/02/19 02:30:08;;;;;;;4.90;1.63;;;7.10;50.30;;;6.96;45.27;97232.41;6209991;23;20258;-43
2022/02/19 02:32:41;;;;;;;8.57;1.93;;;7.10;50.50;;;6.96;44.70;97229.75;6237489;23;20032;-41
2022/02/19 02:35:09;;;;;;;9.60;2.00;;;7.00;50.20;;;6.86;44.80;97250.97;6236738;23;20156;-44
2022/02/19 02:37:43;;;;;;;10.23;3.20;;;7.00;50.30;;;6.72;45.14;97239.06;6208956;23;20237;-41
2022/02/19 02:40:11;;;;;;;5.07;1.83;;;6.90;50.20;;;6.89;45.33;97246.22;6236797;23;20294;-41
2022/02/19 02:42:39;;;;;;;5.73;1.67;;;7.00;50.60;;;6.79;45.35;97249.91;6237093;23;20311;-43
2022/02/19 02:45:10;;;;;;;4.73;1.80;;;6.90;50.00;;;6.83;45.62;97251.28;6210515;23;20218;-41
2022/02/19 02:47:58;;;;;;;7.13;3.00;;;6.90;50.60;;;6.76;45.30;97258.97;6208287;23;20016;-41
2022/02/19 02:50:32;;;;;;;4.95;2.30;;;6.80;51.10;;;6.70;44.96;97248.97;6209920;23;20016;-43
2022/02/19 02:53:20;;;;;;;6.73;2.30;;;6.80;49.90;;;6.52;44.94;97277.19;6209544;23;20319;-41
2022/02/19 02:55:48;;;;;;;5.87;1.90;;;6.70;49.90;;;6.52;45.08;97266.59;6210292;23;20020;-44
2022/02/19 02:58:15;;;;;;;5.57;1.40;;;6.70;50.10;;;6.56;44.77;97287.31;6209898;23;20214;-41
2022/02/19 03:00:44;;;;;;;5.13;2.30;;;6.70;49.90;;;6.65;44.88;97278.53;6208576;23;20034;-42
2022/02/19 03:03:11;;;;;;;5.53;1.93;;;6.80;49.50;;;6.53;44.55;97292.88;6212151;23;20016;-41
2022/02/19 03:05:42;;;;;;;7.13;1.73;;;6.70;49.60;;;6.48;45.07;97303.91;6210229;23;20023;-41
2022/02/19 03:08:10;;;;;;;3.00;2.20;;;6.70;50.40;;;6.54;45.08;97278.69;6208688;23;20411;-41
2022/02/19 03:10:38;;;;;;;4.23;1.40;;;6.70;49.60;;;6.58;45.23;97288.00;6208693;23;20210;-41
2022/02/19 03:13:06;;;;;;;4.03;1.30;;;6.70;49.90;;;6.54;44.81;97293.75;6209095;23;20338;-43
2022/02/19 03:15:35;;;;;;;3.87;1.60;;;6.70;49.40;;;6.55;44.52;97306.78;6236340;23;20016;-42
2022/02/19 03:18:02;;;;;;;5.00;1.87;;;6.60;49.70;;;6.53;44.28;97298.16;6209806;23;20024;-42
2022/02/19 03:20:39;;;;;;;4.97;1.50;;;6.70;49.50;;;6.55;44.63;97304.16;6207567;23;20034;-42
2022/02/19 03:23:07;;;;;;;7.80;1.63;;;6.70;49.70;;;6.49;44.47;97312.66;6210405;23;20024;-41
2022/02/19 03:25:36;;;;;;;5.63;1.90;;;6.60;50.20;;;6.43;45.21;97327.28;6236775;23;20015;-43
2022/02/19 03:28:08;;;;;;;9.27;3.10;;;6.50;50.20;;;6.45;45.21;97322.69;6210500;23;20336;-43
2022/02/19 03:30:37;;;;;;;7.10;2.10;;;6.50;50.40;;;6.22;45.31;97331.94;6207252;23;20023;-41
2022/02/19 03:33:19;;;;;;;4.30;2.03;;;6.40;51.00;;;6.08;46.53;97335.84;6208610;23;20028;-41
2022/02/19 03:35:47;;;;;;;6.90;2.30;;;6.30;52.10;;;5.97;46.20;97357.13;6209335;23;20238;-41
2022/02/19 03:38:15;;;;;;;5.67;1.90;;;6.10;52.30;;;6.00;46.82;97344.47;6208722;23;20034;-41
2022/02/19 03:41:01;;;;;;;6.67;2.03;;;6.20;52.60;;;6.10;47.02;97365.59;6208699;23;20028;-41
2022/02/19 03:43:31;;;;;;;7.03;1.63;;;6.20;52.50;;;6.11;46.70;97360.19;6235173;23;20024;-41
2022/02/19 03:45:59;;;;;;;4.93;2.33;;;6.20;52.70;;;6.19;47.09;97369.22;6235551;23;20026;-41
2022/02/19 03:49:00;;;;;;;10.10;2.63;;;6.30;52.80;;;6.15;46.63;97367.84;6162901;23;20209;-41
2022/02/19 03:51:28;;;;;;;5.63;1.70;;;6.30;52.30;;;6.13;46.32;97380.34;6209833;23;20222;-41
2022/02/19 03:53:58;;;;;;;8.87;2.37;;;6.20;52.00;;;6.13;46.50;97375.06;6209475;23;20310;-41
2022/02/19 03:56:29;;;;;;;3.50;1.60;;;6.20;52.60;;;6.06;46.09;97394.13;6184842;23;20034;-41
2022/02/19 03:59:03;;;;;;;6.50;1.50;;;6.10;52.30;;;6.10;46.18;97382.28;6209559;23;20071;-40
2022/02/19 04:01:32;;;;;;;4.67;1.47;;;6.20;52.20;;;6.06;46.37;97398.59;6209554;23;20016;-41
2022/02/19 04:04:07;;;;;;;5.03;1.73;;;6.20;52.70;;;6.04;47.14;97393.44;6209300;23;20438;-40
2022/02/19 04:06:37;;;;;;;3.47;2.03;;;6.20;52.50;;;5.81;47.00;97410.47;6207606;23;20016;-40
2022/02/19 04:09:04;;;;;;;6.67;1.73;;;5.90;52.90;;;5.75;48.19;97398.66;6207853;23;20016;-40
2022/02/19 04:11:35;;;;;;;8.13;2.10;;;5.80;53.60;;;5.87;47.76;97409.94;6210067;23;20020;-40
2022/02/19 04:14:06;;;;;;;7.80;2.07;;;5.90;53.80;;;5.84;48.01;97418.97;6208666;23;20460;-40
2022/02/19 04:16:54;;;;;;;7.17;2.97;;;5.90;53.50;;;5.89;46.66;97419.41;6199063;23;20028;-40
2022/02/19 04:19:26;;;;;;;7.03;1.43;;;6.00;53.20;;;5.84;46.54;97429.53;6209582;23;20020;-40
2022/02/19 04:21:54;;;;;;;7.13;1.77;;;5.90;53.10;;;5.76;47.73;97421.47;6244987;23;20051;-41
2022/02/19 04:24:24;;;;;;;4.90;1.93;;;5.90;53.40;;;5.82;47.55;97434.13;6207548;23;20023;-40
2022/02/19 04:27:02;;;;;;;4.40;1.70;;;5.90;53.20;;;5.80;47.26;97429.97;6209072;23;20022;-41
2022/02/19 04:29:32;;;;;;;7.77;1.70;;;5.90;53.40;;;5.84;47.20;97437.47;6208397;23;20038;-41
2022/02/19 04:32:03;;;;;;;5.23;1.93;;;5.90;53.50;;;5.87;46.48;97434.56;6208003;23;20338;-40
2022/02/19 04:34:43;;;;;;;5.03;1.33;;;5.90;53.20;;;5.75;47.18;97438.28;6208489;23;20225;-41
2022/02/19 04:37:12;;;;;;;8.63;2.50;;;5.80;53.30;;;5.83;47.03;97441.06;6234345;23;20028;-40
2022/02/19 04:39:42;;;;;;;7.53;2.10;;;5.90;53.10;;;5.81;46.96;97453.59;6207571;23;20032;-40
2022/02/19 04:42:25;;;;;;;3.93;2.10;;;5.90;52.90;;;5.56;46.90;97451.44;6233708;23;20334;-40
2022/02/19 04:44:55;;;;;;;5.17;1.33;;;5.70;53.00;;;5.46;47.23;97460.16;6209036;23;20024;-40
2022/02/19 04:47:23;;;;;;;5.47;2.10;;;5.60;53.50;;;5.50;47.34;97469.47;6207273;23;20048;-42
2022/02/19 04:49:52;;;;;;;4.60;2.13;;;5.60;53.60;;;5.45;48.06;97468.25;6204239;23;20051;-40
2022/02/19 04:52:20;;;;;;;10.73;3.00;;;5.50;53.90;;;5.42;47.65;97477.25;6235337;23;20028;-40
2022/02/19 04:54:48;;;;;;;7.07;1.90;;;5.50;53.70;;;5.38;48.32;97470.56;6207625;23;20028;-43
2022/02/19 04:57:20;;;;;;;6.27;1.90;;;5.50;54.10;;;5.51;48.00;97468.53;6208604;23;20429;-40
2022/02/19 04:59:48;;;;;;;8.37;2.10;;;5.60;53.90;;;5.40;48.21;97481.00;6207586;23;20020;-44
2022/02/19 05:02:21;;;;;;;4.57;1.60;;;5.50;54.30;;;5.37;48.58;97487.38;6208537;23;20031;-43
2022/02/19 05:04:51;;;;;;;4.47;1.53;;;5.50;54.30;;;5.41;48.25;97507.25;6208179;23;20049;-41
2022/02/19 05:07:23;;;;;;;6.73;2.23;;;5.50;54.40;;;5.35;48.06;97499.03;6234109;23;20030;-41
2022/02/19 05:09:52;;;;;;;10.33;2.43;;;5.50;54.70;;;5.25;49.05;97501.63;6183627;23;20216;-41
2022/02/19 05:12:27;;;;;;;8.60;2.00;;;5.40;55.10;;;5.07;49.55;97504.03;6209195;23;20390;-40
2022/02/19 05:14:54;;;;;;;9.13;3.70;;;5.20;55.90;;;5.03;49.70;97508.72;6208035;23;20028;-41
2022/02/19 05:17:42;;;;;;;5.30;2.10;;;5.10;56.20;;;4.98;49.84;97523.25;6207523;23;20034;-39
2022/02/19 05:20:10;;;;;;;;;;;5.10;57.20;;;4.99;50.66;97515.22;6186028;23;20027;-42
2022/02/19 05:22:41;;;;;;;9.80;2.07;;;5.10;57.20;;;5.02;49.81;97520.25;6208939;23;19918;-40
2022/02/19 05:25:09;;;;;;;8.47;2.93;;;5.10;56.80;;;5.04;50.05;97528.88;6207033;23;20023;-40
2022/02/19 05:27:37;;;;;;;9.53;2.23;;;5.10;56.90;;;4.96;50.58;97551.59;6206896;23;20024;-40
2022/02/19 05:30:10;;;;;;;7.60;2.30;;;5.00;56.80;;;5.01;50.12;97542.31;6233720;23;20024;-40
2022/02/19 05:32:48;;;;;;;9.50;1.87;;;5.00;56.70;;;4.96;49.76;97544.50;6209845;23;20332;-40
2022/02/19 05:35:21;;;;;;;4.82;1.77;;;5.10;57.60;;;4.93;49.36;97537.69;6208245;23;20111;-41
2022/02/19 05:37:49;;;;;;;8.67;1.90;;;5.00;56.40;;;5.10;49.72;97546.00;6209422;23;20020;-40
2022/02/19 05:40:17;;;;;;;5.40;1.93;;;5.20;56.20;;;5.07;49.53;97538.31;6208669;23;20024;-41
2022/02/19 05:42:46;;;;;;;4.57;1.67;;;5.20;56.10;;;5.12;49.86;97551.97;6210067;23;20352;-40
2022/02/19 05:45:27;;;;;;;8.40;2.33;;;5.20;56.00;;;4.99;49.85;97540.78;6209971;23;20030;-40
2022/02/19 05:47:58;;;;;;;7.93;2.53;;;5.10;56.70;;;4.76;50.38;97554.06;6209074;23;20023;-40
2022/02/19 05:50:55;;;;;;;8.77;2.30;;;4.90;57.00;;;4.95;49.72;97547.28;6166027;23;20239;-40
2022/02/19 05:53:43;;;;;;;7.80;2.33;;;5.10;56.50;;;4.87;50.66;97563.75;6214267;23;20032;-40
2022/02/19 05:56:11;;;;;;;7.77;2.37;;;5.00;56.70;;;4.83;50.43;97557.88;6235938;23;20318;-40
2022/02/19 05:58:39;;;;;;;8.63;2.10;;;5.00;57.00;;;4.79;50.55;97561.75;6209958;23;20325;-41
2022/02/19 06:01:14;;;;;;;3.87;1.70;;;4.90;57.30;;;4.63;50.41;97571.88;6209819;23;20035;-40
2022/02/19 06:03:47;;;;;;;16.98;3.55;;;4.80;57.40;;;4.52;50.85;97573.59;6209854;23;20024;-40
2022/02/19 06:06:20;;;;;;;4.63;1.60;;;4.70;57.80;;;4.62;51.10;97573.69;6210606;23;20020;-40
2022/02/19 06:08:49;;;;;;;7.30;2.23;;;4.80;58.00;;;4.61;51.02;97574.63;6210218;23;20016;-40
2022/02/19 06:11:19;;;;;;;6.30;2.40;;;4.70;57.90;;;4.63;51.24;97585.06;6210806;23;20024;-40
2022/02/19 06:14:05;;;;;;;8.47;3.03;;;4.70;58.10;;;4.73;50.33;97586.00;6246100;23;20026;-40
2022/02/19 06:16:43;;;;;;;4.70;1.80;;;4.80;57.80;;;4.62;50.99;97600.03;6210182;23;20034;-44
2022/02/19 06:19:17;;;;;;;3.03;1.70;;;4.70;58.00;;;4.41;51.42;97597.34;6209319;23;20050;-40
2022/02/19 06:21:45;;;;;;;8.13;2.60;;;4.60;58.40;;;4.62;50.76;97602.69;6184126;23;20034;-40
2022/02/19 06:24:13;;;;;;;6.67;1.60;;;4.70;57.80;;;4.43;51.66;97610.41;6211347;23;20023;-41
2022/02/19 06:26:41;;;;;;;7.77;2.37;;;4.60;58.10;;;4.55;51.33;97619.94;6235217;23;20021;-40
2022/02/19 06:29:18;;;;;;;6.80;2.50;;;4.70;58.20;;;4.51;51.31;97616.72;6246952;23;20050;-39
2022/02/19 06:31:53;;;;;;;6.07;1.93;;;4.70;58.40;;;4.49;51.61;97620.44;6209134;23;20024;-40
2022/02/19 06:34:20;;;;;;;9.13;3.33;;;4.60;58.70;;;4.60;51.21;97617.78;6210028;23;20403;-41
2022/02/19 06:36:49;;;;;;;6.63;1.83;;;4.70;58.10;;;4.71;50.87;97635.38;6210186;23;20247;-39
2022/02/19 06:39:23;;;;;;;6.53;2.00;;;4.80;57.60;;;4.69;51.11;97624.97;6207538;23;20034;-41
2022/02/19 06:41:51;;;;;;;5.70;2.53;;;4.80;57.90;;;4.51;51.37;97640.44;6210612;23;20054;-40
2022/02/19 06:44:40;;;;;;;6.27;2.47;;;4.60;58.40;;;4.58;51.10;97648.72;6234035;23;20043;-41
2022/02/19 06:47:10;;;;;;;6.87;2.67;;;4.70;58.30;;;4.53;51.90;97638.53;6209315;23;20023;-40
2022/02/19 06:49:38;;;;;;;8.17;3.17;;;4.70;58.40;;;4.62;51.61;97659.88;6209938;23;20022;-40
2022/02/19 06:52:07;;;;;;;7.13;1.93;;;4.70;58.70;;;4.50;52.02;97654.63;6208180;23;20023;-40
2022/02/19 06:54:35;;;;;;;5.40;1.63;;;4.70;59.10;;;4.48;52.45;97671.53;6207486;23;20028;-40
2022/02/19 06:57:04;;;;;;;6.20;2.83;;;4.60;59.40;;;4.57;51.56;97670.75;6209901;23;20028;-40
2022/02/19 06:59:33;;;;;;;5.53;1.87;;;4.60;58.90;;;4.39;52.23;97683.63;6208943;23;20028;-40
2022/02/19 07:02:01;;;;;;;7.60;2.00;;;4.50;59.90;;;4.43;52.60;97681.59;6209311;23;20071;-41
2022/02/19 07:04:29;;;;;;;9.30;2.30;;;4.50;60.40;;;4.48;52.14;97695.25;6209793;23;20008;-39
2022/02/19 07:06:57;;;;;;;7.70;2.00;;;4.60;59.90;;;4.50;52.38;97707.34;6244916;23;20020;-40
2022/02/19 07:09:26;;;;;;;6.17;2.67;;;4.60;59.70;;;4.51;52.88;97693.19;6209141;23;20461;-40
2022/02/19 07:11:56;;;;;;;6.67;1.83;;;4.60;59.80;;;4.63;52.20;97706.34;6211395;23;20016;-40
2022/02/19 07:14:27;;;;;;;6.80;1.83;;;4.70;59.90;;;4.73;51.87;97709.97;6185510;23;20218;-40
2022/02/19 07:17:04;;;;;;;3.38;1.45;;;4.80;59.70;;;4.70;52.00;97718.94;6210251;23;20028;-41
2022/02/19 07:19:34;;;;;;;9.68;2.33;;;4.80;59.30;;;4.65;52.00;97738.72;6209782;23;20020;-40
2022/02/19 07:22:04;;;;;;;6.80;2.13;;;4.80;58.80;;;4.66;52.46;97725.41;6184239;23;20027;-40
2022/02/19 07:24:33;;;;;;;13.63;2.80;;;4.80;58.80;;;4.68;52.30;97731.41;6207936;23;20024;-40
2022/02/19 07:27:02;;;;;;;6.53;1.50;;;4.80;59.00;;;4.62;52.31;97737.16;6207948;23;20016;-40
2022/02/19 07:29:32;;;;;;;6.03;1.67;;;4.80;59.20;;;4.70;52.33;97737.38;6209131;23;20314;-40
2022/02/19 07:32:00;;;;;;;6.47;1.67;;;4.90;59.20;;;4.68;52.35;97754.31;6209000;23;20024;-40
2022/02/19 07:34:28;;;;;;;8.97;2.90;;;4.80;59.20;;;4.61;52.00;97748.66;6235790;23;20195;-40
2022/02/19 07:36:56;;;;;;;5.67;1.87;;;4.80;59.30;;;4.60;52.84;97759.34;6246169;23;20024;-41
2022/02/19 07:39:23;;;;;;;9.80;3.50;;;4.80;60.40;;;4.58;53.02;97756.84;6247721;23;20028;-40
2022/02/19 07:41:58;;;;;;;8.82;2.65;;;4.80;60.00;;;4.64;52.78;97763.44;6222237;23;20102;-41
2022/02/19 07:44:44;;;;;;;8.37;1.80;;;4.80;59.80;;;4.76;52.78;97761.63;6261003;23;20224;-40
2022/02/19 07:47:34;;;;;;;12.60;2.20;;;4.90;59.70;;;4.66;52.12;97772.06;6235688;23;20229;-41
2022/02/19 07:59:10;;;;;;;7.50;2.60;;;4.90;59.40;;;4.65;52.48;97794.09;6222861;23;20034;-40
2022/02/19 08:01:38;;;;;;;3.37;1.70;;;5.00;58.70;;;4.76;52.86;97806.44;6224486;23;20019;-40
2022/02/19 08:04:06;;;;;;;10.77;2.20;;;5.00;59.20;;;4.81;52.92;97791.09;6224073;23;20024;-40
2022/02/19 08:06:34;;;;;;;7.23;2.07;;;5.10;59.30;;;4.95;52.27;97782.94;6224019;23;20022;-40
2022/02/19 08:09:02;;;;;;;7.37;2.10;;;5.20;59.50;;;4.92;52.17;97788.44;6222194;23;20024;-40
2022/02/19 08:11:33;;;;;;;5.80;2.63;;;5.20;58.80;;;4.85;52.46;97795.19;6224130;23;20243;-40
2022/02/19 08:14:01;;;;;;;9.17;3.07;;;5.10;59.10;;;4.91;52.30;97810.53;6251396;23;20026;-39
2022/02/19 08:16:29;;;;;;;8.43;2.17;;;5.10;59.90;;;4.88;52.21;97806.31;6251432;23;20030;-40
2022/02/19 08:18:57;;;;;;;6.67;1.57;;;5.10;59.20;;;4.97;52.29;97802.13;6223176;23;20038;-39
2022/02/19 08:21:27;;;;;;;7.17;2.03;;;5.10;59.10;;;4.91;52.66;97802.59;6259024;23;20294;-40
2022/02/19 08:23:54;;;;;;;7.63;2.37;;;5.10;59.70;;;5.01;52.68;97797.44;6251129;23;20020;-39
2022/02/19 08:26:24;;;;;;;7.40;2.13;;;5.10;59.20;;;5.03;52.55;97804.25;6250082;23;20020;-40
2022/02/19 08:28:52;;;;;;;6.07;1.80;;;5.20;59.30;;;5.17;52.51;97807.59;6250255;23;20026;-48
2022/02/19 08:31:21;;;;;;;4.60;1.80;;;5.30;59.00;;;5.13;51.63;97815.75;6250899;23;20037;-46
2022/02/19 08:33:49;;;;;;;6.93;1.67;;;5.30;59.00;;;5.20;51.41;97807.34;6235278;23;20008;-45
2022/02/19 08:36:16;;;;;;;8.70;1.50;;;5.30;58.60;;;5.07;52.49;97812.78;6250843;23;20016;-50
2022/02/19 08:38:44;;;;;;;5.20;2.40;;;5.20;59.10;;;5.03;51.83;97832.44;6246864;23;20024;-49
2022/02/19 08:41:12;;;;;;;5.67;1.37;;;5.20;59.60;;;4.95;52.30;97835.69;6251383;23;20016;-46
2022/02/19 08:43:40;;;;;;;7.30;1.87;;;5.10;59.30;;;5.09;51.93;97830.16;6247879;23;20016;-47
2022/02/19 08:46:08;;;;;;;4.30;2.17;;;5.20;59.20;;;5.14;52.00;97837.72;6247764;23;20030;-49
2022/02/19 08:48:36;;;;;;;5.57;2.23;;;5.30;58.60;;;5.21;51.88;97836.25;6258023;23;20026;-47
2022/02/19 08:51:03;;;;;;;7.30;3.00;;;5.40;58.70;;;5.17;51.97;97834.00;6220706;23;20016;-43
2022/02/19 08:53:31;;;;;;;9.07;2.10;;;5.30;58.30;;;5.24;51.50;97849.22;6249860;23;20496;-45
2022/02/19 08:59:52;;;;;;;6.00;2.60;;;5.40;57.00;;;5.20;51.20;97860.97;6245841;23;20116;-43
2022/02/19 09:02:20;;;;;;;5.93;2.20;;;5.40;57.50;;;5.20;51.07;97870.72;6247426;23;20016;-43
2022/02/19 09:04:51;;;;;;;12.00;2.50;;;5.40;57.50;;;5.08;51.52;97876.00;6258145;23;20326;-42
2022/02/19 09:07:19;;;;;;;17.37;2.67;;;5.30;57.80;;;5.10;51.10;97854.75;6247534;23;20314;-44
2022/02/19 09:09:47;;;;;;;6.93;2.17;;;5.30;57.70;;;5.18;51.09;97868.19;6249592;23;20233;-43
2022/02/19 09:12:15;;;;;;;5.80;1.90;;;5.40;57.90;;;5.18;51.54;97870.00;6221217;23;20225;-44
2022/02/19 09:14:43;;;;;;;4.07;1.83;;;5.30;57.90;;;5.13;50.66;97868.53;6245160;23;20030;-43
2022/02/19 09:17:12;;;;;;;5.77;2.00;;;5.30;57.40;;;5.20;50.94;97862.78;6249903;23;20028;-44
2022/02/19 09:19:40;;;;;;;8.83;2.40;;;5.40;57.40;;;5.31;50.76;97862.75;6247977;23;20356;-44
2022/02/19 09:22:08;;;;;;;4.67;2.07;;;5.40;57.10;;;5.33;49.79;97861.69;6249728;23;20050;-44
2022/02/19 09:24:35;;;;;;;7.33;3.23;;;5.50;56.30;;;5.50;51.12;97862.13;6250806;23;20046;-44
2022/02/19 09:27:04;;;;;;;5.60;2.43;;;5.60;57.20;;;5.56;50.21;97872.19;6249818;23;20018;-44
2022/02/19 09:29:37;;;;;;;6.10;1.80;;;5.70;56.60;;;5.61;49.40;97864.72;6258533;23;20225;-43
2022/02/19 09:32:06;;;;;;;7.20;1.80;;;5.80;54.70;;;5.60;48.90;97868.31;6247744;23;20202;-46
2022/02/19 09:34:34;;;;;;;5.43;2.33;;;5.80;54.60;;;5.69;49.40;97859.66;6223648;23;20015;-41
2022/02/19 09:37:01;;;;;;;7.80;2.00;;;5.80;55.60;;;5.77;49.89;97866.13;6248773;23;20028;-41
2022/02/19 09:39:29;;;;;;;8.20;2.23;;;5.90;55.60;;;5.70;49.52;97871.91;6250048;23;20035;-40
2022/02/19 09:42:02;;;;;;;3.53;1.57;;;5.80;55.80;;;5.60;50.03;97867.50;6223896;23;20481;-41
2022/02/19 09:44:54;;;;;;;5.83;1.83;;;5.80;55.00;;;5.64;49.52;97867.13;6238657;23;20016;-40
2022/02/19 09:47:28;;;;;;;7.70;1.77;;;5.80;55.20;;;5.67;48.84;97880.06;6222368;23;20016;-41
2022/02/19 09:49:58;;;;;;;2.67;1.40;;;5.90;55.10;;;5.69;49.26;97866.75;6248956;23;20020;-40
2022/02/19 09:52:26;;;;;;;5.83;2.03;;;5.90;54.70;;;5.67;49.44;97888.00;6249209;23;20042;-41
2022/02/19 09:54:59;;;;;;;4.87;1.70;;;5.90;54.80;;;5.67;49.12;97866.88;6260230;23;20307;-40
2022/02/19 09:57:27;;;;;;;4.72;1.55;;;5.90;55.30;;;5.58;49.19;97869.41;6261051;23;20214;-41
2022/02/19 09:59:55;;;;;;;7.37;1.70;;;5.80;55.20;;;5.69;49.28;97869.38;6251149;23;20024;-43
2022/02/19 10:02:33;;;;;;;13.03;4.57;;;5.90;55.60;;;5.70;50.08;97871.09;6223964;23;20016;-42
2022/02/19 10:05:18;;;;;;;5.97;2.13;;;5.90;56.00;;;5.55;49.63;97869.69;6233584;23;20302;-41
2022/02/19 10:08:07;;;;;;;6.93;2.73;;;5.80;56.10;;;5.57;50.08;97876.50;6260980;23;20012;-41
2022/02/19 10:10:39;;;;;;;7.07;2.40;;;5.80;55.90;;;5.66;49.78;97880.19;6250302;23;20023;-40
2022/02/19 10:13:10;;;;;;;7.93;1.90;;;5.90;56.20;;;5.73;50.11;97874.28;6235475;23;20019;-41
2022/02/19 10:15:49;;;;;;;5.50;2.30;;;6.00;56.50;;;5.85;49.30;97877.72;6224659;23;20016;-40
2022/02/19 10:18:39;;;;;;;6.90;1.80;;;6.00;55.10;;;5.84;49.49;97886.63;6260850;23;20024;-41
2022/02/19 10:21:24;;;;;;;6.03;2.80;;;6.10;55.60;;;5.97;50.00;97883.00;6221366;23;20046;-40
2022/02/19 10:23:56;;;;;;;5.67;1.67;;;6.20;55.40;;;6.06;49.21;97879.59;6261241;23;20016;-39
2022/02/19 10:26:31;;;;;;;4.43;1.60;;;6.20;54.90;;;6.10;49.51;97886.31;6247806;23;20270;-38
2022/02/19 10:29:06;;;;;;;8.43;1.93;;;6.30;55.20;;;6.02;47.28;97892.22;6263033;23;20012;-40
2022/02/19 10:31:35;;;;;;;8.03;2.47;;;6.30;53.00;;;6.01;47.55;97892.34;6251126;23;20024;-40
2022/02/19 10:34:08;;;;;;;6.47;1.90;;;6.20;53.00;;;5.83;48.06;97894.69;6252430;23;20214;-40
2022/02/19 10:36:54;;;;;;;7.00;1.77;;;6.10;53.10;;;6.03;48.96;97904.50;6252606;23;20016;-42
2022/02/19 10:39:27;;;;;;;4.20;1.90;;;6.20;54.10;;;6.03;48.23;97891.28;6255716;23;20015;-42
2022/02/19 10:41:57;;;;;;;7.10;2.33;;;6.30;53.10;;;6.19;48.07;97903.22;6248237;23;20024;-41
2022/02/19 10:44:33;;;;;;;9.93;1.90;;;6.40;52.90;;;6.08;45.72;97894.38;6248334;23;20016;-41
2022/02/19 10:47:25;;;;;;;7.20;2.13;;;6.40;49.70;;;6.17;45.44;97908.63;6200859;23;20016;-40
2022/02/19 10:50:22;;;;;;;4.30;2.07;;;6.50;50.20;;;6.04;45.81;97895.59;6257958;23;20042;-41
2022/02/19 10:53:08;;;;;;;;;;;6.30;50.40;;;6.04;46.87;97905.34;6238852;23;20024;-41
2022/02/19 10:55:37;;;;;;;3.83;1.80;;;6.30;51.60;;;5.97;46.84;97891.78;6251503;23;19926;-41
2022/02/19 10:58:06;;;;;;;4.40;1.70;;;6.30;51.10;;;6.05;47.04;97893.81;6251699;23;20020;-41
2022/02/19 11:00:36;;;;;;;5.40;1.97;;;6.30;51.20;;;5.99;46.04;97915.44;6226114;23;20030;-40
2022/02/19 11:03:09;;;;;;;4.90;1.50;;;6.30;50.60;;;6.10;45.93;97903.00;6224032;23;20012;-41
2022/02/19 11:05:40;;;;;;;5.57;1.77;;;6.40;50.40;;;6.31;45.29;97907.50;6254324;23;20241;-40